sensor_id;sensor_type;location;lat;lon;timestamp;P1;durP1;ratioP1;P2;durP2;ratioP2
2538;SDS011;1280;49.760;9.664;2022-11-15T00:02:24;9.00;;;4.00;;
2538;SDS011;1280;49.760;9.664;2022-11-15T00:05:12;7.73;;;3.63;;
2538;SDS011;1280;49.760;9.664;2022-11-15T00:07:59;8.10;;;3.90;;
2538;SDS011;1280;49.760;9.664;2022-11-15T00:10:54;7.37;;;4.20;;
2538;SDS011;1280;49.760;9.664;2022-11-15T00:13:41;7.20;;;4.50;;
2538;SDS011;1280;49.760;9.664;2022-11-15T00:16:28;7.30;;;4.43;;
2538;SDS011;1280;49.760;9.664;2022-11-15T00:19:14;6.70;;;3.57;;
2538;SDS011;1280;49.760;9.664;2022-11-15T00:22:01;8.07;;;4.20;;
2538;SDS011;1280;49.760;9.664;2022-11-15T00:24:47;10.00;;;3.80;;
2538;SDS011;1280;49.760;9.664;2022-11-15T00:27:35;6.90;;;4.83;;
2538;SDS011;1280;49.760;9.664;2022-11-15T00:30:21;10.03;;;5.53;;
2538;SDS011;1280;49.760;9.664;2022-11-15T00:33:08;8.60;;;5.07;;
2538;SDS011;1280;49.760;9.664;2022-11-15T00:35:59;10.80;;;4.63;;
2538;SDS011;1280;49.760;9.664;2022-11-15T00:38:46;10.67;;;4.70;;
2538;SDS011;1280;49.760;9.664;2022-11-15T00:41:32;8.37;;;4.20;;
2538;SDS011;1280;49.760;9.664;2022-11-15T00:44:20;8.77;;;4.43;;
2538;SDS011;1280;49.760;9.664;2022-11-15T00:47:07;10.00;;;5.60;;
2538;SDS011;1280;49.760;9.664;2022-11-15T00:49:53;14.40;;;7.80;;
2538;SDS011;1280;49.760;9.664;2022-11-15T00:52:40;16.50;;;7.30;;
2538;SDS011;1280;49.760;9.664;2022-11-15T00:55:27;18.60;;;7.90;;
2538;SDS011;1280;49.760;9.664;2022-11-15T00:58:13;45.33;;;10.80;;
2538;SDS011;1280;49.760;9.664;2022-11-15T01:01:08;26.30;;;12.43;;
2538;SDS011;1280;49.760;9.664;2022-11-15T01:03:57;13.63;;;7.40;;
2538;SDS011;1280;49.760;9.664;2022-11-15T01:06:45;23.60;;;11.77;;
2538;SDS011;1280;49.760;9.664;2022-11-15T01:09:32;20.27;;;8.80;;
2538;SDS011;1280;49.760;9.664;2022-11-15T01:12:19;16.00;;;7.67;;
2538;SDS011;1280;49.760;9.664;2022-11-15T01:15:06;12.57;;;7.43;;
2538;SDS011;1280;49.760;9.664;2022-11-15T01:17:54;13.43;;;6.87;;
2538;SDS011;1280;49.760;9.664;2022-11-15T01:20:41;17.20;;;10.03;;
2538;SDS011;1280;49.760;9.664;2022-11-15T01:23:28;20.70;;;10.87;;
2538;SDS011;1280;49.760;9.664;2022-11-15T01:26:16;16.30;;;8.90;;
2538;SDS011;1280;49.760;9.664;2022-11-15T01:29:02;10.23;;;5.83;;
2538;SDS011;1280;49.760;9.664;2022-11-15T01:31:49;9.10;;;5.27;;
2538;SDS011;1280;49.760;9.664;2022-11-15T01:34:37;9.97;;;5.97;;
2538;SDS011;1280;49.760;9.664;2022-11-15T01:37:23;9.00;;;5.43;;
2538;SDS011;1280;49.760;9.664;2022-11-15T01:40:10;11.10;;;7.17;;
2538;SDS011;1280;49.760;9.664;2022-11-15T01:42:56;13.10;;;6.80;;
2538;SDS011;1280;49.760;9.664;2022-11-15T01:45:43;20.10;;;9.43;;
2538;SDS011;1280;49.760;9.664;2022-11-15T01:48:33;14.03;;;7.60;;
2538;SDS011;1280;49.760;9.664;2022-11-15T01:51:22;13.40;;;7.87;;
2538;SDS011;1280;49.760;9.664;2022-11-15T01:54:13;15.37;;;8.93;;
2538;SDS011;1280;49.760;9.664;2022-11-15T01:57:03;36.43;;;17.10;;
2538;SDS011;1280;49.760;9.664;2022-11-15T01:59:52;38.30;;;18.60;;
2538;SDS011;1280;49.760;9.664;2022-11-15T02:02:39;35.43;;;16.30;;
2538;SDS011;1280;49.760;9.664;2022-11-15T02:05:26;22.10;;;11.10;;
2538;SDS011;1280;49.760;9.664;2022-11-15T02:08:14;16.00;;;8.57;;
2538;SDS011;1280;49.760;9.664;2022-11-15T02:11:07;15.67;;;7.00;;
2538;SDS011;1280;49.760;9.664;2022-11-15T02:13:53;12.47;;;7.37;;
2538;SDS011;1280;49.760;9.664;2022-11-15T02:16:42;14.00;;;7.90;;
2538;SDS011;1280;49.760;9.664;2022-11-15T02:19:41;14.10;;;8.60;;
2538;SDS011;1280;49.760;9.664;2022-11-15T02:22:57;15.87;;;9.00;;
2538;SDS011;1280;49.760;9.664;2022-11-15T02:26:07;29.60;;;13.40;;
2538;SDS011;1280;49.760;9.664;2022-11-15T02:29:10;22.93;;;11.60;;
2538;SDS011;1280;49.760;9.664;2022-11-15T02:32:02;18.73;;;11.53;;
2538;SDS011;1280;49.760;9.664;2022-11-15T02:34:54;16.07;;;9.90;;
2538;SDS011;1280;49.760;9.664;2022-11-15T02:37:50;17.63;;;10.43;;
2538;SDS011;1280;49.760;9.664;2022-11-15T02:40:41;18.37;;;10.03;;
2538;SDS011;1280;49.760;9.664;2022-11-15T02:43:36;13.27;;;7.90;;
2538;SDS011;1280;49.760;9.664;2022-11-15T02:46:45;11.33;;;6.50;;
2538;SDS011;1280;49.760;9.664;2022-11-15T02:49:55;11.30;;;7.43;;
2538;SDS011;1280;49.760;9.664;2022-11-15T02:52:44;12.03;;;7.27;;
2538;SDS011;1280;49.760;9.664;2022-11-15T02:55:33;11.17;;;7.37;;
2538;SDS011;1280;49.760;9.664;2022-11-15T02:58:25;13.60;;;7.93;;
2538;SDS011;1280;49.760;9.664;2022-11-15T03:01:29;12.03;;;7.90;;
2538;SDS011;1280;49.760;9.664;2022-11-15T03:04:27;15.17;;;7.87;;
2538;SDS011;1280;49.760;9.664;2022-11-15T03:07:25;13.23;;;8.43;;
2538;SDS011;1280;49.760;9.664;2022-11-15T03:10:17;15.30;;;8.17;;
2538;SDS011;1280;49.760;9.664;2022-11-15T03:13:13;11.30;;;8.07;;
2538;SDS011;1280;49.760;9.664;2022-11-15T03:16:08;14.87;;;7.73;;
2538;SDS011;1280;49.760;9.664;2022-11-15T03:18:59;11.57;;;7.53;;
2538;SDS011;1280;49.760;9.664;2022-11-15T03:21:52;11.37;;;7.87;;
2538;SDS011;1280;49.760;9.664;2022-11-15T03:24:43;14.33;;;8.53;;
2538;SDS011;1280;49.760;9.664;2022-11-15T03:27:31;16.53;;;10.40;;
2538;SDS011;1280;49.760;9.664;2022-11-15T03:30:22;17.87;;;11.47;;
2538;SDS011;1280;49.760;9.664;2022-11-15T03:33:09;14.43;;;8.03;;
2538;SDS011;1280;49.760;9.664;2022-11-15T03:35:57;14.67;;;6.47;;
2538;SDS011;1280;49.760;9.664;2022-11-15T03:38:44;15.37;;;7.07;;
2538;SDS011;1280;49.760;9.664;2022-11-15T03:41:35;12.90;;;5.60;;
2538;SDS011;1280;49.760;9.664;2022-11-15T03:44:29;10.37;;;6.07;;
2538;SDS011;1280;49.760;9.664;2022-11-15T03:47:23;8.83;;;5.57;;
2538;SDS011;1280;49.760;9.664;2022-11-15T03:50:13;16.23;;;8.60;;
2538;SDS011;1280;49.760;9.664;2022-11-15T03:53:03;30.00;;;13.97;;
2538;SDS011;1280;49.760;9.664;2022-11-15T03:55:50;23.80;;;11.23;;
2538;SDS011;1280;49.760;9.664;2022-11-15T03:58:37;20.27;;;10.70;;
2538;SDS011;1280;49.760;9.664;2022-11-15T04:01:24;15.90;;;9.10;;
2538;SDS011;1280;49.760;9.664;2022-11-15T04:04:11;12.10;;;6.70;;
2538;SDS011;1280;49.760;9.664;2022-11-15T04:06:57;10.63;;;6.20;;
2538;SDS011;1280;49.760;9.664;2022-11-15T04:09:44;12.87;;;6.17;;
2538;SDS011;1280;49.760;9.664;2022-11-15T04:12:50;10.50;;;6.10;;
2538;SDS011;1280;49.760;9.664;2022-11-15T04:15:38;13.15;;;5.22;;
2538;SDS011;1280;49.760;9.664;2022-11-15T04:18:24;10.27;;;5.27;;
2538;SDS011;1280;49.760;9.664;2022-11-15T04:21:11;7.70;;;4.50;;
2538;SDS011;1280;49.760;9.664;2022-11-15T04:24:29;9.90;;;4.60;;
2538;SDS011;1280;49.760;9.664;2022-11-15T04:27:16;11.87;;;6.77;;
2538;SDS011;1280;49.760;9.664;2022-11-15T04:30:03;10.30;;;6.73;;
2538;SDS011;1280;49.760;9.664;2022-11-15T04:32:51;12.00;;;6.97;;
2538;SDS011;1280;49.760;9.664;2022-11-15T04:35:37;9.10;;;6.10;;
2538;SDS011;1280;49.760;9.664;2022-11-15T04:38:24;11.00;;;5.73;;
2538;SDS011;1280;49.760;9.664;2022-11-15T04:41:09;8.80;;;5.33;;
2538;SDS011;1280;49.760;9.664;2022-11-15T04:43:56;8.90;;;5.27;;
2538;SDS011;1280;49.760;9.664;2022-11-15T04:46:42;11.83;;;6.23;;
2538;SDS011;1280;49.760;9.664;2022-11-15T04:49:30;11.10;;;6.40;;
2538;SDS011;1280;49.760;9.664;2022-11-15T04:52:16;11.83;;;6.23;;
2538;SDS011;1280;49.760;9.664;2022-11-15T04:55:03;10.53;;;6.00;;
2538;SDS011;1280;49.760;9.664;2022-11-15T04:57:58;9.70;;;6.13;;
2538;SDS011;1280;49.760;9.664;2022-11-15T05:00:45;9.48;;;6.05;;
2538;SDS011;1280;49.760;9.664;2022-11-15T05:03:32;11.13;;;6.30;;
2538;SDS011;1280;49.760;9.664;2022-11-15T05:06:37;9.00;;;5.80;;
2538;SDS011;1280;49.760;9.664;2022-11-15T05:09:24;11.67;;;6.47;;
2538;SDS011;1280;49.760;9.664;2022-11-15T05:12:10;9.63;;;6.30;;
2538;SDS011;1280;49.760;9.664;2022-11-15T05:14:57;10.30;;;6.57;;
2538;SDS011;1280;49.760;9.664;2022-11-15T05:17:43;9.35;;;5.63;;
2538;SDS011;1280;49.760;9.664;2022-11-15T05:20:29;9.77;;;6.27;;
2538;SDS011;1280;49.760;9.664;2022-11-15T05:23:17;10.10;;;6.63;;
2538;SDS011;1280;49.760;9.664;2022-11-15T05:26:04;12.20;;;8.13;;
2538;SDS011;1280;49.760;9.664;2022-11-15T05:28:53;19.93;;;8.10;;
2538;SDS011;1280;49.760;9.664;2022-11-15T05:31:41;12.00;;;6.70;;
2538;SDS011;1280;49.760;9.664;2022-11-15T05:34:28;11.20;;;7.60;;
2538;SDS011;1280;49.760;9.664;2022-11-15T05:37:14;11.00;;;7.50;;
2538;SDS011;1280;49.760;9.664;2022-11-15T05:40:04;10.40;;;7.13;;
2538;SDS011;1280;49.760;9.664;2022-11-15T05:42:51;10.70;;;7.13;;
2538;SDS011;1280;49.760;9.664;2022-11-15T05:45:38;25.93;;;16.80;;
2538;SDS011;1280;49.760;9.664;2022-11-15T05:48:24;18.60;;;9.25;;
2538;SDS011;1280;49.760;9.664;2022-11-15T05:51:11;17.07;;;9.43;;
2538;SDS011;1280;49.760;9.664;2022-11-15T05:53:59;18.53;;;9.17;;
2538;SDS011;1280;49.760;9.664;2022-11-15T05:56:48;13.30;;;8.93;;
2538;SDS011;1280;49.760;9.664;2022-11-15T05:59:35;17.10;;;7.20;;
2538;SDS011;1280;49.760;9.664;2022-11-15T06:02:22;11.47;;;6.53;;
2538;SDS011;1280;49.760;9.664;2022-11-15T06:05:08;14.13;;;7.50;;
2538;SDS011;1280;49.760;9.664;2022-11-15T06:07:56;16.30;;;8.00;;
2538;SDS011;1280;49.760;9.664;2022-11-15T06:10:43;12.60;;;7.93;;
2538;SDS011;1280;49.760;9.664;2022-11-15T06:13:31;13.65;;;8.13;;
2538;SDS011;1280;49.760;9.664;2022-11-15T06:16:18;11.45;;;8.50;;
2538;SDS011;1280;49.760;9.664;2022-11-15T06:19:05;15.03;;;7.90;;
2538;SDS011;1280;49.760;9.664;2022-11-15T06:21:52;18.65;;;10.25;;
2538;SDS011;1280;49.760;9.664;2022-11-15T06:24:38;17.65;;;10.70;;
2538;SDS011;1280;49.760;9.664;2022-11-15T06:27:25;16.65;;;10.48;;
2538;SDS011;1280;49.760;9.664;2022-11-15T06:30:13;15.70;;;11.23;;
2538;SDS011;1280;49.760;9.664;2022-11-15T06:33:00;13.43;;;10.18;;
2538;SDS011;1280;49.760;9.664;2022-11-15T06:35:48;19.70;;;11.07;;
2538;SDS011;1280;49.760;9.664;2022-11-15T06:38:35;16.53;;;11.33;;
2538;SDS011;1280;49.760;9.664;2022-11-15T06:41:22;19.30;;;11.70;;
2538;SDS011;1280;49.760;9.664;2022-11-15T06:44:08;23.13;;;13.13;;
2538;SDS011;1280;49.760;9.664;2022-11-15T06:46:56;26.10;;;16.80;;
2538;SDS011;1280;49.760;9.664;2022-11-15T06:49:43;30.63;;;19.20;;
2538;SDS011;1280;49.760;9.664;2022-11-15T06:52:29;47.42;;;28.30;;
2538;SDS011;1280;49.760;9.664;2022-11-15T06:55:17;27.45;;;17.77;;
2538;SDS011;1280;49.760;9.664;2022-11-15T06:58:04;20.50;;;13.90;;
2538;SDS011;1280;49.760;9.664;2022-11-15T07:00:50;21.60;;;14.60;;
2538;SDS011;1280;49.760;9.664;2022-11-15T07:03:39;22.48;;;13.98;;
2538;SDS011;1280;49.760;9.664;2022-11-15T07:06:27;20.53;;;13.10;;
2538;SDS011;1280;49.760;9.664;2022-11-15T07:09:13;26.23;;;18.77;;
2538;SDS011;1280;49.760;9.664;2022-11-15T07:12:01;35.30;;;23.30;;
2538;SDS011;1280;49.760;9.664;2022-11-15T07:14:52;41.00;;;27.20;;
2538;SDS011;1280;49.760;9.664;2022-11-15T07:17:38;39.90;;;25.07;;
2538;SDS011;1280;49.760;9.664;2022-11-15T07:20:26;26.05;;;17.42;;
2538;SDS011;1280;49.760;9.664;2022-11-15T07:23:12;22.30;;;15.33;;
2538;SDS011;1280;49.760;9.664;2022-11-15T07:25:59;20.47;;;14.63;;
2538;SDS011;1280;49.760;9.664;2022-11-15T07:28:46;19.03;;;13.40;;
2538;SDS011;1280;49.760;9.664;2022-11-15T07:31:32;19.83;;;14.00;;
2538;SDS011;1280;49.760;9.664;2022-11-15T07:34:19;22.90;;;13.83;;
2538;SDS011;1280;49.760;9.664;2022-11-15T07:37:07;24.70;;;11.50;;
2538;SDS011;1280;49.760;9.664;2022-11-15T07:39:53;15.50;;;10.43;;
2538;SDS011;1280;49.760;9.664;2022-11-15T07:42:40;15.10;;;8.70;;
2538;SDS011;1280;49.760;9.664;2022-11-15T07:45:40;15.93;;;9.90;;
2538;SDS011;1280;49.760;9.664;2022-11-15T07:48:28;16.13;;;9.40;;
2538;SDS011;1280;49.760;9.664;2022-11-15T07:51:27;19.73;;;11.30;;
2538;SDS011;1280;49.760;9.664;2022-11-15T07:54:14;20.10;;;11.43;;
2538;SDS011;1280;49.760;9.664;2022-11-15T07:57:01;18.07;;;10.47;;
2538;SDS011;1280;49.760;9.664;2022-11-15T07:59:51;17.27;;;10.90;;
2538;SDS011;1280;49.760;9.664;2022-11-15T08:02:38;23.37;;;10.77;;
2538;SDS011;1280;49.760;9.664;2022-11-15T08:05:25;15.10;;;9.77;;
2538;SDS011;1280;49.760;9.664;2022-11-15T08:08:12;14.90;;;9.43;;
2538;SDS011;1280;49.760;9.664;2022-11-15T08:10:59;14.13;;;8.03;;
2538;SDS011;1280;49.760;9.664;2022-11-15T08:13:46;14.03;;;8.60;;
2538;SDS011;1280;49.760;9.664;2022-11-15T08:16:32;12.40;;;7.60;;
2538;SDS011;1280;49.760;9.664;2022-11-15T08:19:19;14.73;;;9.10;;
2538;SDS011;1280;49.760;9.664;2022-11-15T08:22:06;22.40;;;11.10;;
2538;SDS011;1280;49.760;9.664;2022-11-15T08:24:53;15.70;;;10.27;;
2538;SDS011;1280;49.760;9.664;2022-11-15T08:27:41;15.80;;;9.33;;
2538;SDS011;1280;49.760;9.664;2022-11-15T08:30:27;15.03;;;9.07;;
2538;SDS011;1280;49.760;9.664;2022-11-15T08:33:14;13.80;;;8.13;;
2538;SDS011;1280;49.760;9.664;2022-11-15T08:36:00;13.50;;;8.33;;
2538;SDS011;1280;49.760;9.664;2022-11-15T08:38:47;13.53;;;7.90;;
2538;SDS011;1280;49.760;9.664;2022-11-15T08:41:34;13.47;;;7.90;;
2538;SDS011;1280;49.760;9.664;2022-11-15T08:44:24;12.47;;;7.53;;
2538;SDS011;1280;49.760;9.664;2022-11-15T08:47:10;9.37;;;6.43;;
2538;SDS011;1280;49.760;9.664;2022-11-15T08:49:58;10.17;;;7.00;;
2538;SDS011;1280;49.760;9.664;2022-11-15T08:52:45;9.33;;;6.67;;
2538;SDS011;1280;49.760;9.664;2022-11-15T08:55:35;11.80;;;7.50;;
2538;SDS011;1280;49.760;9.664;2022-11-15T08:58:23;12.50;;;7.33;;
2538;SDS011;1280;49.760;9.664;2022-11-15T09:01:15;10.40;;;7.27;;
2538;SDS011;1280;49.760;9.664;2022-11-15T09:04:04;9.87;;;6.20;;
2538;SDS011;1280;49.760;9.664;2022-11-15T09:06:50;13.67;;;7.80;;
2538;SDS011;1280;49.760;9.664;2022-11-15T09:09:38;10.50;;;7.37;;
2538;SDS011;1280;49.760;9.664;2022-11-15T09:12:25;10.80;;;7.50;;
2538;SDS011;1280;49.760;9.664;2022-11-15T09:15:11;16.23;;;10.60;;
2538;SDS011;1280;49.760;9.664;2022-11-15T09:17:59;13.83;;;8.70;;
2538;SDS011;1280;49.760;9.664;2022-11-15T09:20:46;15.80;;;8.87;;
2538;SDS011;1280;49.760;9.664;2022-11-15T09:23:32;15.73;;;9.27;;
2538;SDS011;1280;49.760;9.664;2022-11-15T09:26:19;14.27;;;8.83;;
2538;SDS011;1280;49.760;9.664;2022-11-15T09:29:05;12.37;;;7.80;;
2538;SDS011;1280;49.760;9.664;2022-11-15T09:31:52;14.00;;;8.50;;
2538;SDS011;1280;49.760;9.664;2022-11-15T09:34:40;12.60;;;9.00;;
2538;SDS011;1280;49.760;9.664;2022-11-15T09:37:26;15.67;;;9.07;;
2538;SDS011;1280;49.760;9.664;2022-11-15T09:40:13;13.73;;;8.70;;
2538;SDS011;1280;49.760;9.664;2022-11-15T09:43:06;14.87;;;8.90;;
2538;SDS011;1280;49.760;9.664;2022-11-15T09:46:07;14.97;;;8.90;;
2538;SDS011;1280;49.760;9.664;2022-11-15T09:49:16;13.10;;;8.43;;
2538;SDS011;1280;49.760;9.664;2022-11-15T09:52:02;12.57;;;9.03;;
2538;SDS011;1280;49.760;9.664;2022-11-15T09:54:31;16.43;;;10.40;;
2538;SDS011;1280;49.760;9.664;2022-11-15T09:57:21;33.00;;;21.53;;
2538;SDS011;1280;49.760;9.664;2022-11-15T10:00:02;253.30;;;138.03;;
2538;SDS011;1280;49.760;9.664;2022-11-15T10:03:02;202.30;;;110.50;;
2538;SDS011;1280;49.760;9.664;2022-11-15T10:05:37;104.33;;;58.27;;
2538;SDS011;1280;49.760;9.664;2022-11-15T10:08:11;34.67;;;21.40;;
2538;SDS011;1280;49.760;9.664;2022-11-15T10:10:57;23.80;;;14.00;;
2538;SDS011;1280;49.760;9.664;2022-11-15T10:13:47;17.27;;;9.70;;
2538;SDS011;1280;49.760;9.664;2022-11-15T10:16:21;14.47;;;9.60;;
2538;SDS011;1280;49.760;9.664;2022-11-15T10:19:04;20.23;;;10.67;;
2538;SDS011;1280;49.760;9.664;2022-11-15T10:21:40;14.33;;;8.80;;
2538;SDS011;1280;49.760;9.664;2022-11-15T10:24:24;19.70;;;9.37;;
2538;SDS011;1280;49.760;9.664;2022-11-15T10:26:54;22.23;;;11.37;;
2538;SDS011;1280;49.760;9.664;2022-11-15T10:29:23;17.30;;;10.57;;
2538;SDS011;1280;49.760;9.664;2022-11-15T10:31:53;14.90;;;10.13;;
2538;SDS011;1280;49.760;9.664;2022-11-15T10:34:21;15.93;;;9.20;;
2538;SDS011;1280;49.760;9.664;2022-11-15T10:36:54;15.67;;;9.20;;
2538;SDS011;1280;49.760;9.664;2022-11-15T10:39:24;11.67;;;7.83;;
2538;SDS011;1280;49.760;9.664;2022-11-15T10:41:53;15.40;;;7.80;;
2538;SDS011;1280;49.760;9.664;2022-11-15T10:44:28;16.30;;;9.33;;
2538;SDS011;1280;49.760;9.664;2022-11-15T10:47:04;12.43;;;8.30;;
2538;SDS011;1280;49.760;9.664;2022-11-15T10:50:06;16.97;;;10.10;;
2538;SDS011;1280;49.760;9.664;2022-11-15T10:52:52;14.23;;;10.10;;
2538;SDS011;1280;49.760;9.664;2022-11-15T10:55:23;22.27;;;10.60;;
2538;SDS011;1280;49.760;9.664;2022-11-15T10:57:54;17.13;;;10.20;;
2538;SDS011;1280;49.760;9.664;2022-11-15T11:00:29;15.30;;;9.20;;
2538;SDS011;1280;49.760;9.664;2022-11-15T11:03:00;13.80;;;8.77;;
2538;SDS011;1280;49.760;9.664;2022-11-15T11:05:31;16.00;;;7.83;;
2538;SDS011;1280;49.760;9.664;2022-11-15T11:08:18;15.77;;;8.90;;
2538;SDS011;1280;49.760;9.664;2022-11-15T11:10:53;16.33;;;9.03;;
2538;SDS011;1280;49.760;9.664;2022-11-15T11:13:28;16.10;;;9.27;;
2538;SDS011;1280;49.760;9.664;2022-11-15T11:15:59;15.10;;;9.50;;
2538;SDS011;1280;49.760;9.664;2022-11-15T11:18:37;15.07;;;8.97;;
2538;SDS011;1280;49.760;9.664;2022-11-15T11:21:13;13.10;;;8.70;;
2538;SDS011;1280;49.760;9.664;2022-11-15T11:23:51;19.33;;;9.80;;
2538;SDS011;1280;49.760;9.664;2022-11-15T11:26:32;18.00;;;9.37;;
2538;SDS011;1280;49.760;9.664;2022-11-15T11:29:12;18.43;;;9.23;;
2538;SDS011;1280;49.760;9.664;2022-11-15T11:31:49;19.03;;;9.27;;
2538;SDS011;1280;49.760;9.664;2022-11-15T11:34:27;18.40;;;9.30;;
2538;SDS011;1280;49.760;9.664;2022-11-15T11:37:03;14.30;;;9.80;;
2538;SDS011;1280;49.760;9.664;2022-11-15T11:39:40;16.23;;;9.27;;
2538;SDS011;1280;49.760;9.664;2022-11-15T11:42:18;13.80;;;9.20;;
2538;SDS011;1280;49.760;9.664;2022-11-15T11:44:57;19.10;;;10.20;;
2538;SDS011;1280;49.760;9.664;2022-11-15T11:47:31;18.40;;;8.67;;
2538;SDS011;1280;49.760;9.664;2022-11-15T11:50:10;15.83;;;9.10;;
2538;SDS011;1280;49.760;9.664;2022-11-15T11:52:43;15.60;;;9.60;;
2538;SDS011;1280;49.760;9.664;2022-11-15T11:55:19;16.70;;;9.30;;
2538;SDS011;1280;49.760;9.664;2022-11-15T11:57:53;14.80;;;8.83;;
2538;SDS011;1280;49.760;9.664;2022-11-15T12:00:29;15.57;;;9.80;;
2538;SDS011;1280;49.760;9.664;2022-11-15T12:03:03;18.57;;;10.70;;
2538;SDS011;1280;49.760;9.664;2022-11-15T12:05:38;18.30;;;9.97;;
2538;SDS011;1280;49.760;9.664;2022-11-15T12:08:15;15.50;;;9.20;;
2538;SDS011;1280;49.760;9.664;2022-11-15T12:10:53;15.53;;;9.17;;
2538;SDS011;1280;49.760;9.664;2022-11-15T12:13:28;15.97;;;8.87;;
2538;SDS011;1280;49.760;9.664;2022-11-15T12:16:04;18.03;;;9.50;;
2538;SDS011;1280;49.760;9.664;2022-11-15T12:18:38;15.90;;;8.07;;
2538;SDS011;1280;49.760;9.664;2022-11-15T12:21:07;15.90;;;8.53;;
2538;SDS011;1280;49.760;9.664;2022-11-15T12:23:42;17.07;;;9.63;;
2538;SDS011;1280;49.760;9.664;2022-11-15T12:26:16;18.50;;;12.23;;
2538;SDS011;1280;49.760;9.664;2022-11-15T12:28:49;22.60;;;12.53;;
2538;SDS011;1280;49.760;9.664;2022-11-15T12:31:35;20.30;;;10.53;;
2538;SDS011;1280;49.760;9.664;2022-11-15T12:34:13;14.10;;;10.30;;
2538;SDS011;1280;49.760;9.664;2022-11-15T12:37:02;19.40;;;11.13;;
2538;SDS011;1280;49.760;9.664;2022-11-15T12:40:29;16.63;;;11.57;;
2538;SDS011;1280;49.760;9.664;2022-11-15T12:43:03;20.90;;;12.43;;
2538;SDS011;1280;49.760;9.664;2022-11-15T12:45:48;25.23;;;12.40;;
2538;SDS011;1280;49.760;9.664;2022-11-15T12:57:52;19.63;;;10.93;;
2538;SDS011;1280;49.760;9.664;2022-11-15T13:03:31;16.47;;;9.77;;
2538;SDS011;1280;49.760;9.664;2022-11-15T13:06:10;22.93;;;9.83;;
2538;SDS011;1280;49.760;9.664;2022-11-15T13:12:47;13.03;;;6.37;;
2538;SDS011;1280;49.760;9.664;2022-11-15T13:21:17;12.63;;;7.93;;
2538;SDS011;1280;49.760;9.664;2022-11-15T13:24:09;13.30;;;8.70;;
2538;SDS011;1280;49.760;9.664;2022-11-15T13:26:40;13.00;;;9.30;;
2538;SDS011;1280;49.760;9.664;2022-11-15T13:29:14;16.20;;;8.70;;
2538;SDS011;1280;49.760;9.664;2022-11-15T13:31:44;13.90;;;7.63;;
2538;SDS011;1280;49.760;9.664;2022-11-15T13:37:28;15.20;;;7.93;;
2538;SDS011;1280;49.760;9.664;2022-11-15T13:40:10;12.43;;;8.27;;
2538;SDS011;1280;49.760;9.664;2022-11-15T13:42:46;11.10;;;7.93;;
2538;SDS011;1280;49.760;9.664;2022-11-15T13:45:15;15.87;;;8.80;;
2538;SDS011;1280;49.760;9.664;2022-11-15T13:47:44;13.97;;;8.70;;
2538;SDS011;1280;49.760;9.664;2022-11-15T13:50:21;16.43;;;9.27;;
2538;SDS011;1280;49.760;9.664;2022-11-15T13:52:52;18.00;;;8.67;;
2538;SDS011;1280;49.760;9.664;2022-11-15T13:55:23;14.87;;;9.73;;
2538;SDS011;1280;49.760;9.664;2022-11-15T13:57:53;13.23;;;8.30;;
2538;SDS011;1280;49.760;9.664;2022-11-15T14:00:27;13.03;;;8.27;;
2538;SDS011;1280;49.760;9.664;2022-11-15T14:03:06;18.33;;;8.47;;
2538;SDS011;1280;49.760;9.664;2022-11-15T14:05:41;16.10;;;9.03;;
2538;SDS011;1280;49.760;9.664;2022-11-15T14:08:21;13.80;;;9.07;;
2538;SDS011;1280;49.760;9.664;2022-11-15T14:11:05;14.37;;;10.13;;
2538;SDS011;1280;49.760;9.664;2022-11-15T14:13:34;17.73;;;9.97;;
2538;SDS011;1280;49.760;9.664;2022-11-15T14:16:12;14.97;;;8.90;;
2538;SDS011;1280;49.760;9.664;2022-11-15T14:18:42;11.60;;;8.27;;
2538;SDS011;1280;49.760;9.664;2022-11-15T14:21:14;13.80;;;8.00;;
2538;SDS011;1280;49.760;9.664;2022-11-15T14:23:42;17.23;;;9.37;;
2538;SDS011;1280;49.760;9.664;2022-11-15T14:26:21;23.40;;;14.33;;
2538;SDS011;1280;49.760;9.664;2022-11-15T14:28:53;21.60;;;14.20;;
2538;SDS011;1280;49.760;9.664;2022-11-15T14:31:21;18.17;;;13.63;;
2538;SDS011;1280;49.760;9.664;2022-11-15T14:33:49;20.73;;;13.20;;
2538;SDS011;1280;49.760;9.664;2022-11-15T14:36:19;15.90;;;10.23;;
2538;SDS011;1280;49.760;9.664;2022-11-15T14:38:48;31.60;;;18.60;;
2538;SDS011;1280;49.760;9.664;2022-11-15T14:41:17;16.70;;;9.17;;
2538;SDS011;1280;49.760;9.664;2022-11-15T14:43:47;12.87;;;8.20;;
2538;SDS011;1280;49.760;9.664;2022-11-15T14:46:15;16.30;;;8.90;;
2538;SDS011;1280;49.760;9.664;2022-11-15T14:48:43;12.20;;;8.33;;
2538;SDS011;1280;49.760;9.664;2022-11-15T14:51:11;16.97;;;10.37;;
2538;SDS011;1280;49.760;9.664;2022-11-15T14:53:42;14.00;;;6.03;;
2538;SDS011;1280;49.760;9.664;2022-11-15T14:56:12;13.00;;;6.10;;
2538;SDS011;1280;49.760;9.664;2022-11-15T14:58:40;12.70;;;6.00;;
2538;SDS011;1280;49.760;9.664;2022-11-15T15:01:10;12.40;;;6.57;;
2538;SDS011;1280;49.760;9.664;2022-11-15T15:03:43;11.10;;;6.10;;
2538;SDS011;1280;49.760;9.664;2022-11-15T15:06:11;13.23;;;8.47;;
2538;SDS011;1280;49.760;9.664;2022-11-15T15:08:45;15.20;;;9.07;;
2538;SDS011;1280;49.760;9.664;2022-11-15T15:11:17;14.60;;;8.40;;
2538;SDS011;1280;49.760;9.664;2022-11-15T15:13:48;13.87;;;10.03;;
2538;SDS011;1280;49.760;9.664;2022-11-15T15:16:16;16.83;;;8.93;;
2538;SDS011;1280;49.760;9.664;2022-11-15T15:18:45;12.00;;;8.87;;
2538;SDS011;1280;49.760;9.664;2022-11-15T15:21:17;12.30;;;8.70;;
2538;SDS011;1280;49.760;9.664;2022-11-15T15:23:49;16.23;;;9.40;;
2538;SDS011;1280;49.760;9.664;2022-11-15T15:26:18;14.33;;;9.30;;
2538;SDS011;1280;49.760;9.664;2022-11-15T15:28:46;14.33;;;9.60;;
2538;SDS011;1280;49.760;9.664;2022-11-15T15:31:14;14.83;;;9.40;;
2538;SDS011;1280;49.760;9.664;2022-11-15T15:33:42;14.20;;;9.40;;
2538;SDS011;1280;49.760;9.664;2022-11-15T15:36:11;17.63;;;9.97;;
2538;SDS011;1280;49.760;9.664;2022-11-15T15:38:39;14.00;;;9.37;;
2538;SDS011;1280;49.760;9.664;2022-11-15T15:41:10;18.77;;;9.27;;
2538;SDS011;1280;49.760;9.664;2022-11-15T15:43:38;14.67;;;9.80;;
2538;SDS011;1280;49.760;9.664;2022-11-15T15:46:07;13.70;;;9.70;;
2538;SDS011;1280;49.760;9.664;2022-11-15T15:48:37;14.40;;;10.00;;
2538;SDS011;1280;49.760;9.664;2022-11-15T15:51:05;14.40;;;11.27;;
2538;SDS011;1280;49.760;9.664;2022-11-15T15:53:45;17.67;;;11.50;;
2538;SDS011;1280;49.760;9.664;2022-11-15T15:56:14;16.97;;;11.10;;
2538;SDS011;1280;49.760;9.664;2022-11-15T15:58:42;20.33;;;10.80;;
2538;SDS011;1280;49.760;9.664;2022-11-15T16:01:10;18.63;;;11.20;;
2538;SDS011;1280;49.760;9.664;2022-11-15T16:03:38;15.83;;;11.77;;
2538;SDS011;1280;49.760;9.664;2022-11-15T16:09:01;16.97;;;12.00;;
2538;SDS011;1280;49.760;9.664;2022-11-15T16:11:47;20.93;;;13.50;;
2538;SDS011;1280;49.760;9.664;2022-11-15T16:14:15;17.90;;;14.03;;
2538;SDS011;1280;49.760;9.664;2022-11-15T16:16:43;18.50;;;12.77;;
2538;SDS011;1280;49.760;9.664;2022-11-15T16:19:11;21.40;;;16.13;;
2538;SDS011;1280;49.760;9.664;2022-11-15T16:21:39;23.77;;;16.00;;
2538;SDS011;1280;49.760;9.664;2022-11-15T16:24:07;25.43;;;17.50;;
2538;SDS011;1280;49.760;9.664;2022-11-15T16:26:35;35.63;;;25.23;;
2538;SDS011;1280;49.760;9.664;2022-11-15T16:29:05;42.50;;;33.50;;
2538;SDS011;1280;49.760;9.664;2022-11-15T16:31:35;44.30;;;30.87;;
2538;SDS011;1280;49.760;9.664;2022-11-15T16:34:03;53.77;;;40.70;;
2538;SDS011;1280;49.760;9.664;2022-11-15T16:36:32;48.00;;;34.17;;
2538;SDS011;1280;49.760;9.664;2022-11-15T16:39:01;39.13;;;28.70;;
2538;SDS011;1280;49.760;9.664;2022-11-15T16:41:30;27.80;;;22.37;;
2538;SDS011;1280;49.760;9.664;2022-11-15T16:43:58;42.00;;;27.00;;
2538;SDS011;1280;49.760;9.664;2022-11-15T16:46:28;50.23;;;33.20;;
2538;SDS011;1280;49.760;9.664;2022-11-15T16:48:56;46.30;;;32.90;;
2538;SDS011;1280;49.760;9.664;2022-11-15T16:51:24;42.50;;;31.47;;
2538;SDS011;1280;49.760;9.664;2022-11-15T16:53:52;34.80;;;26.53;;
2538;SDS011;1280;49.760;9.664;2022-11-15T16:56:22;33.73;;;23.70;;
2538;SDS011;1280;49.760;9.664;2022-11-15T16:58:52;31.47;;;23.93;;
2538;SDS011;1280;49.760;9.664;2022-11-15T17:01:21;34.20;;;22.87;;